sensor_id;sensor_type;location;lat;lon;timestamp;pressure;altitude;pressure_sealevel;temperature;humidity
31239;BME280;17871;31.584;74.450;2023-04-29T00:03:15;98063.91;;;26.24;43.00
31239;BME280;17871;31.584;74.450;2023-04-29T00:05:52;98071.84;;;26.37;43.09
31239;BME280;17871;31.584;74.450;2023-04-29T00:11:59;98066.88;;;26.47;43.00
31239;BME280;17871;31.584;74.450;2023-04-29T00:14:39;98069.09;;;26.39;42.72
31239;BME280;17871;31.584;74.450;2023-04-29T00:17:49;98069.69;;;26.44;42.50
31239;BME280;17871;31.584;74.450;2023-04-29T00:24:18;98060.22;;;26.41;42.81
31239;BME280;17871;31.584;74.450;2023-04-29T00:26:51;98059.19;;;26.29;42.93
31239;BME280;17871;31.584;74.450;2023-04-29T00:29:26;98055.00;;;26.27;43.03
31239;BME280;17871;31.584;74.450;2023-04-29T00:35:18;98062.81;;;26.13;43.19
31239;BME280;17871;31.584;74.450;2023-04-29T00:37:51;98068.47;;;26.21;43.30
31239;BME280;17871;31.584;74.450;2023-04-29T00:41:13;98070.34;;;26.33;43.65
31239;BME280;17871;31.584;74.450;2023-04-29T00:43:51;98078.94;;;26.35;43.47
31239;BME280;17871;31.584;74.450;2023-04-29T00:46:25;98080.63;;;26.36;43.44
31239;BME280;17871;31.584;74.450;2023-04-29T00:49:08;98084.44;;;26.45;43.38
31239;BME280;17871;31.584;74.450;2023-04-29T00:51:50;98087.75;;;26.34;43.60
31239;BME280;17871;31.584;74.450;2023-04-29T00:54:44;98083.31;;;26.35;43.52
31239;BME280;17871;31.584;74.450;2023-04-29T00:57:22;98079.56;;;26.10;44.17
31239;BME280;17871;31.584;74.450;2023-04-29T01:00:06;98081.78;;;26.02;44.16
31239;BME280;17871;31.584;74.450;2023-04-29T01:02:47;98083.00;;;25.97;44.45
31239;BME280;17871;31.584;74.450;2023-04-29T01:05:30;98083.22;;;26.08;44.46
31239;BME280;17871;31.584;74.450;2023-04-29T01:08:26;98090.25;;;26.36;44.14
31239;BME280;17871;31.584;74.450;2023-04-29T01:12:49;98090.53;;;26.45;43.89
31239;BME280;17871;31.584;74.450;2023-04-29T01:22:00;98104.25;;;26.06;45.37
31239;BME280;17871;31.584;74.450;2023-04-29T01:24:36;98103.47;;;26.34;44.58
31239;BME280;17871;31.584;74.450;2023-04-29T01:27:46;98109.25;;;26.25;44.98
31239;BME280;17871;31.584;74.450;2023-04-29T01:33:40;98110.59;;;26.18;44.66
31239;BME280;17871;31.584;74.450;2023-04-29T01:45:14;98111.31;;;26.76;43.84
31239;BME280;17871;31.584;74.450;2023-04-29T01:48:36;98117.38;;;26.91;43.58
31239;BME280;17871;31.584;74.450;2023-04-29T01:51:11;98113.19;;;26.60;43.92
31239;BME280;17871;31.584;74.450;2023-04-29T01:53:46;98128.53;;;26.80;43.88
31239;BME280;17871;31.584;74.450;2023-04-29T01:56:24;98125.81;;;26.96;43.44
31239;BME280;17871;31.584;74.450;2023-04-29T01:59:22;98126.06;;;26.77;43.30
31239;BME280;17871;31.584;74.450;2023-04-29T02:02:13;98139.38;;;27.03;43.12
31239;BME280;17871;31.584;74.450;2023-04-29T02:09:05;98150.31;;;27.09;42.50
31239;BME280;17871;31.584;74.450;2023-04-29T02:11:48;98150.34;;;27.36;42.76
31239;BME280;17871;31.584;74.450;2023-04-29T02:15:36;98152.00;;;27.51;43.17
31239;BME280;17871;31.584;74.450;2023-04-29T02:18:19;98154.72;;;27.09;42.79
31239;BME280;17871;31.584;74.450;2023-04-29T02:21:12;98149.72;;;27.18;42.96
31239;BME280;17871;31.584;74.450;2023-04-29T02:23:45;98150.78;;;27.16;43.56
31239;BME280;17871;31.584;74.450;2023-04-29T02:26:18;98146.75;;;27.37;42.88
31239;BME280;17871;31.584;74.450;2023-04-29T02:28:52;98158.22;;;27.36;42.64
31239;BME280;17871;31.584;74.450;2023-04-29T02:31:43;98153.50;;;27.41;42.18
31239;BME280;17871;31.584;74.450;2023-04-29T02:34:24;98159.28;;;27.60;41.95
31239;BME280;17871;31.584;74.450;2023-04-29T02:40:17;98149.16;;;27.54;42.41
31239;BME280;17871;31.584;74.450;2023-04-29T02:42:49;98155.84;;;27.72;42.17
31239;BME280;17871;31.584;74.450;2023-04-29T02:45:23;98158.19;;;27.90;42.93
31239;BME280;17871;31.584;74.450;2023-04-29T02:48:38;98162.63;;;28.02;45.03
31239;BME280;17871;31.584;74.450;2023-04-29T02:51:17;98169.97;;;27.97;44.27
31239;BME280;17871;31.584;74.450;2023-04-29T02:53:54;98173.28;;;28.13;43.25
31239;BME280;17871;31.584;74.450;2023-04-29T02:57:09;98166.03;;;28.29;44.58
31239;BME280;17871;31.584;74.450;2023-04-29T02:59:47;98164.81;;;28.34;44.29
31239;BME280;17871;31.584;74.450;2023-04-29T03:02:18;98166.06;;;28.42;44.26
31239;BME280;17871;31.584;74.450;2023-04-29T03:04:52;98173.41;;;28.11;43.03
31239;BME280;17871;31.584;74.450;2023-04-29T03:07:21;98170.34;;;28.43;42.24
31239;BME280;17871;31.584;74.450;2023-04-29T03:09:51;98169.56;;;28.67;42.39
31239;BME280;17871;31.584;74.450;2023-04-29T03:12:24;98172.69;;;28.47;41.95
31239;BME280;17871;31.584;74.450;2023-04-29T03:15:01;98167.84;;;28.66;41.94
31239;BME280;17871;31.584;74.450;2023-04-29T03:17:30;98166.63;;;29.08;41.95
31239;BME280;17871;31.584;74.450;2023-04-29T03:20:34;98181.22;;;29.25;41.98
31239;BME280;17871;31.584;74.450;2023-04-29T03:23:21;98170.91;;;29.22;40.81
31239;BME280;17871;31.584;74.450;2023-04-29T03:25:51;98175.75;;;29.28;41.69
31239;BME280;17871;31.584;74.450;2023-04-29T03:28:22;98171.22;;;29.30;40.88
31239;BME280;17871;31.584;74.450;2023-04-29T03:30:51;98174.72;;;29.30;40.72
31239;BME280;17871;31.584;74.450;2023-04-29T03:33:21;98173.34;;;29.25;41.21
31239;BME280;17871;31.584;74.450;2023-04-29T03:35:50;98168.00;;;29.50;41.92
31239;BME280;17871;31.584;74.450;2023-04-29T03:38:49;98168.56;;;29.90;41.82
31239;BME280;17871;31.584;74.450;2023-04-29T03:41:19;98171.72;;;29.82;40.53
31239;BME280;17871;31.584;74.450;2023-04-29T03:43:49;98179.91;;;29.91;40.40
31239;BME280;17871;31.584;74.450;2023-04-29T03:46:19;98178.03;;;29.93;40.51
31239;BME280;17871;31.584;74.450;2023-04-29T03:48:50;98178.41;;;29.75;40.57
31239;BME280;17871;31.584;74.450;2023-04-29T03:51:20;98184.53;;;30.11;41.38
31239;BME280;17871;31.584;74.450;2023-04-29T03:57:21;98192.47;;;30.22;39.84
31239;BME280;17871;31.584;74.450;2023-04-29T03:59:52;98193.69;;;30.29;38.67
31239;BME280;17871;31.584;74.450;2023-04-29T04:03:02;98191.38;;;30.59;38.76
31239;BME280;17871;31.584;74.450;2023-04-29T04:08:17;98202.91;;;31.14;38.86
31239;BME280;17871;31.584;74.450;2023-04-29T04:10:46;98195.09;;;31.12;38.77
31239;BME280;17871;31.584;74.450;2023-04-29T04:13:34;98208.19;;;31.14;37.98
31239;BME280;17871;31.584;74.450;2023-04-29T04:16:04;98204.59;;;31.15;38.43
31239;BME280;17871;31.584;74.450;2023-04-29T04:18:49;98200.06;;;31.49;37.22
31239;BME280;17871;31.584;74.450;2023-04-29T04:21:19;98207.31;;;31.58;37.81
31239;BME280;17871;31.584;74.450;2023-04-29T04:24:05;98204.56;;;31.91;37.67
31239;BME280;17871;31.584;74.450;2023-04-29T04:26:34;98196.91;;;32.09;37.30
31239;BME280;17871;31.584;74.450;2023-04-29T04:29:22;98205.00;;;32.07;36.04
31239;BME280;17871;31.584;74.450;2023-04-29T04:32:16;98213.44;;;32.22;35.47
31239;BME280;17871;31.584;74.450;2023-04-29T04:34:45;98210.16;;;32.29;34.80
31239;BME280;17871;31.584;74.450;2023-04-29T04:37:16;98209.44;;;32.48;34.97
31239;BME280;17871;31.584;74.450;2023-04-29T04:39:50;98207.28;;;32.83;35.19
31239;BME280;17871;31.584;74.450;2023-04-29T04:42:21;98205.75;;;33.11;34.19
31239;BME280;17871;31.584;74.450;2023-04-29T04:45:05;98203.44;;;33.27;34.49
31239;BME280;17871;31.584;74.450;2023-04-29T04:47:42;98202.84;;;33.24;33.13
31239;BME280;17871;31.584;74.450;2023-04-29T04:50:21;98205.72;;;33.51;34.21
31239;BME280;17871;31.584;74.450;2023-04-29T04:52:53;98207.28;;;33.73;34.41
31239;BME280;17871;31.584;74.450;2023-04-29T04:55:49;98204.66;;;34.02;32.88
31239;BME280;17871;31.584;74.450;2023-04-29T04:58:19;98201.16;;;34.11;32.29
31239;BME280;17871;31.584;74.450;2023-04-29T05:00:50;98197.28;;;34.15;31.84
31239;BME280;17871;31.584;74.450;2023-04-29T05:03:20;98205.94;;;33.88;31.03
31239;BME280;17871;31.584;74.450;2023-04-29T05:05:57;98195.59;;;34.23;30.98
31239;BME280;17871;31.584;74.450;2023-04-29T05:08:32;98199.69;;;34.74;31.87
31239;BME280;17871;31.584;74.450;2023-04-29T05:11:03;98204.75;;;34.67;31.54
31239;BME280;17871;31.584;74.450;2023-04-29T05:13:34;98192.44;;;34.66;29.05
31239;BME280;17871;31.584;74.450;2023-04-29T05:16:04;98191.25;;;34.88;30.61
31239;BME280;17871;31.584;74.450;2023-04-29T05:18:37;98191.75;;;35.01;30.47
31239;BME280;17871;31.584;74.450;2023-04-29T05:21:07;98192.34;;;34.95;28.67
31239;BME280;17871;31.584;74.450;2023-04-29T05:23:36;98194.66;;;35.08;28.40
31239;BME280;17871;31.584;74.450;2023-04-29T05:26:05;98192.81;;;35.18;28.01
31239;BME280;17871;31.584;74.450;2023-04-29T05:28:35;98195.66;;;35.34;28.19
31239;BME280;17871;31.584;74.450;2023-04-29T05:31:07;98188.97;;;35.30;29.43
31239;BME280;17871;31.584;74.450;2023-04-29T05:33:37;98193.56;;;35.55;29.24
31239;BME280;17871;31.584;74.450;2023-04-29T05:36:07;98192.47;;;35.75;29.07
31239;BME280;17871;31.584;74.450;2023-04-29T05:39:01;98192.53;;;35.83;28.52
31239;BME280;17871;31.584;74.450;2023-04-29T05:41:34;98186.31;;;36.10;29.79
31239;BME280;17871;31.584;74.450;2023-04-29T05:44:20;98190.50;;;36.13;26.81
31239;BME280;17871;31.584;74.450;2023-04-29T05:46:50;98192.88;;;36.16;29.28
31239;BME280;17871;31.584;74.450;2023-04-29T05:49:19;98188.28;;;36.26;28.23
31239;BME280;17871;31.584;74.450;2023-04-29T05:51:48;98187.66;;;36.32;28.56
31239;BME280;17871;31.584;74.450;2023-04-29T05:54:18;98176.91;;;36.41;28.92
31239;BME280;17871;31.584;74.450;2023-04-29T05:56:47;98178.28;;;36.46;26.81
31239;BME280;17871;31.584;74.450;2023-04-29T05:59:16;98173.22;;;36.60;27.86
31239;BME280;17871;31.584;74.450;2023-04-29T06:01:51;98169.78;;;36.76;28.74
31239;BME280;17871;31.584;74.450;2023-04-29T06:04:20;98170.25;;;36.63;26.38
31239;BME280;17871;31.584;74.450;2023-04-29T06:07:10;98165.38;;;36.92;25.63
31239;BME280;17871;31.584;74.450;2023-04-29T06:09:49;98165.38;;;36.92;26.58
31239;BME280;17871;31.584;74.450;2023-04-29T06:12:19;98159.84;;;37.20;26.75
31239;BME280;17871;31.584;74.450;2023-04-29T06:14:48;98163.38;;;37.20;27.13
31239;BME280;17871;31.584;74.450;2023-04-29T06:17:17;98155.56;;;36.59;25.15
31239;BME280;17871;31.584;74.450;2023-04-29T06:19:47;98155.03;;;36.81;25.00
31239;BME280;17871;31.584;74.450;2023-04-29T06:22:22;98147.00;;;37.07;25.97
31239;BME280;17871;31.584;74.450;2023-04-29T06:24:55;98154.06;;;36.99;25.24
31239;BME280;17871;31.584;74.450;2023-04-29T06:27:43;98154.47;;;37.04;24.61
31239;BME280;17871;31.584;74.450;2023-04-29T06:30:14;98151.81;;;37.04;25.61
31239;BME280;17871;31.584;74.450;2023-04-29T06:32:44;98156.81;;;37.07;25.68
31239;BME280;17871;31.584;74.450;2023-04-29T06:35:13;98151.97;;;37.52;25.25
31239;BME280;17871;31.584;74.450;2023-04-29T06:38:01;98159.91;;;37.36;24.99
31239;BME280;17871;31.584;74.450;2023-04-29T06:40:34;98154.06;;;37.32;25.95
31239;BME280;17871;31.584;74.450;2023-04-29T06:43:08;98153.00;;;37.75;26.34
31239;BME280;17871;31.584;74.450;2023-04-29T06:46:08;98149.66;;;37.73;25.45
31239;BME280;17871;31.584;74.450;2023-04-29T06:48:44;98151.34;;;37.90;24.74
31239;BME280;17871;31.584;74.450;2023-04-29T06:51:14;98150.16;;;37.77;24.40
31239;BME280;17871;31.584;74.450;2023-04-29T06:53:43;98141.28;;;37.52;24.98
31239;BME280;17871;31.584;74.450;2023-04-29T06:56:12;98143.09;;;37.43;24.97
31239;BME280;17871;31.584;74.450;2023-04-29T06:58:43;98146.28;;;37.55;24.84
31239;BME280;17871;31.584;74.450;2023-04-29T07:01:12;98141.66;;;37.89;24.02
31239;BME280;17871;31.584;74.450;2023-04-29T07:03:42;98138.00;;;38.15;25.51
31239;BME280;17871;31.584;74.450;2023-04-29T07:06:12;98146.84;;;38.07;24.38
31239;BME280;17871;31.584;74.450;2023-04-29T07:08:41;98135.34;;;38.07;24.26
31239;BME280;17871;31.584;74.450;2023-04-29T07:11:10;98134.44;;;37.58;24.59
31239;BME280;17871;31.584;74.450;2023-04-29T07:13:39;98133.97;;;37.62;24.71
31239;BME280;17871;31.584;74.450;2023-04-29T07:16:15;98132.66;;;38.15;24.88
31239;BME280;17871;31.584;74.450;2023-04-29T07:18:46;98124.66;;;37.99;24.49
31239;BME280;17871;31.584;74.450;2023-04-29T07:21:16;98130.66;;;38.17;25.93
31239;BME280;17871;31.584;74.450;2023-04-29T07:23:46;98116.94;;;38.36;24.66
31239;BME280;17871;31.584;74.450;2023-04-29T07:26:16;98116.28;;;38.26;25.12
31239;BME280;17871;31.584;74.450;2023-04-29T07:28:46;98130.03;;;38.78;25.75
31239;BME280;17871;31.584;74.450;2023-04-29T07:31:16;98120.44;;;38.53;24.07
31239;BME280;17871;31.584;74.450;2023-04-29T07:33:46;98116.97;;;38.12;24.23
31239;BME280;17871;31.584;74.450;2023-04-29T07:36:15;98119.63;;;38.28;25.17
31239;BME280;17871;31.584;74.450;2023-04-29T07:38:45;98122.97;;;38.38;24.51
31239;BME280;17871;31.584;74.450;2023-04-29T07:41:14;98115.53;;;38.72;24.73
31239;BME280;17871;31.584;74.450;2023-04-29T07:43:43;98108.47;;;38.79;25.28
31239;BME280;17871;31.584;74.450;2023-04-29T07:46:13;98109.69;;;38.69;24.08
31239;BME280;17871;31.584;74.450;2023-04-29T07:48:44;98107.59;;;38.32;23.33
31239;BME280;17871;31.584;74.450;2023-04-29T07:51:14;98105.91;;;38.47;24.91
31239;BME280;17871;31.584;74.450;2023-04-29T07:53:43;98099.22;;;38.51;24.53
31239;BME280;17871;31.584;74.450;2023-04-29T07:56:12;98099.75;;;38.30;23.49
31239;BME280;17871;31.584;74.450;2023-04-29T07:58:41;98093.03;;;38.59;23.98
31239;BME280;17871;31.584;74.450;2023-04-29T08:01:10;98095.41;;;38.92;24.51
31239;BME280;17871;31.584;74.450;2023-04-29T08:03:40;98091.22;;;38.51;24.78
31239;BME280;17871;31.584;74.450;2023-04-29T08:06:11;98091.69;;;38.63;24.06
31239;BME280;17871;31.584;74.450;2023-04-29T08:08:41;98083.91;;;38.37;23.76
31239;BME280;17871;31.584;74.450;2023-04-29T08:11:17;98083.53;;;38.56;23.83
31239;BME280;17871;31.584;74.450;2023-04-29T08:13:47;98072.41;;;38.36;23.55
31239;BME280;17871;31.584;74.450;2023-04-29T08:16:17;98075.94;;;38.68;24.52
31239;BME280;17871;31.584;74.450;2023-04-29T08:18:47;98068.72;;;38.76;24.50
31239;BME280;17871;31.584;74.450;2023-04-29T08:21:16;98061.47;;;38.62;23.80
31239;BME280;17871;31.584;74.450;2023-04-29T08:23:45;98055.22;;;38.23;23.63
31239;BME280;17871;31.584;74.450;2023-04-29T08:26:16;98055.53;;;38.75;24.69
31239;BME280;17871;31.584;74.450;2023-04-29T08:28:45;98042.97;;;38.91;24.37
31239;BME280;17871;31.584;74.450;2023-04-29T08:31:17;98041.84;;;39.09;24.41
31239;BME280;17871;31.584;74.450;2023-04-29T08:33:47;98040.06;;;39.24;23.75
31239;BME280;17871;31.584;74.450;2023-04-29T08:36:16;98034.59;;;39.25;24.56
31239;BME280;17871;31.584;74.450;2023-04-29T08:38:45;98040.06;;;39.24;23.41
31239;BME280;17871;31.584;74.450;2023-04-29T08:41:16;98026.47;;;39.11;22.89
31239;BME280;17871;31.584;74.450;2023-04-29T08:43:45;98029.84;;;39.35;23.51
31239;BME280;17871;31.584;74.450;2023-04-29T08:46:14;98020.03;;;39.20;23.63
31239;BME280;17871;31.584;74.450;2023-04-29T08:48:45;98019.38;;;39.18;24.45
31239;BME280;17871;31.584;74.450;2023-04-29T08:51:15;98013.25;;;39.09;23.51
31239;BME280;17871;31.584;74.450;2023-04-29T08:53:44;98011.66;;;39.23;22.94
31239;BME280;17871;31.584;74.450;2023-04-29T08:56:16;98001.56;;;39.33;24.16
31239;BME280;17871;31.584;74.450;2023-04-29T08:58:50;97998.66;;;38.97;24.20
31239;BME280;17871;31.584;74.450;2023-04-29T09:01:21;98003.09;;;39.05;25.80
31239;BME280;17871;31.584;74.450;2023-04-29T09:04:03;97996.69;;;38.91;24.09
31239;BME280;17871;31.584;74.450;2023-04-29T09:06:37;97995.31;;;38.64;23.98
31239;BME280;17871;31.584;74.450;2023-04-29T09:09:06;97993.63;;;38.63;24.55
31239;BME280;17871;31.584;74.450;2023-04-29T09:11:36;97979.53;;;38.77;25.17
31239;BME280;17871;31.584;74.450;2023-04-29T09:14:06;97975.00;;;38.55;24.48
31239;BME280;17871;31.584;74.450;2023-04-29T09:16:37;97964.31;;;38.55;24.84
31239;BME280;17871;31.584;74.450;2023-04-29T09:19:06;97960.56;;;38.64;24.63
31239;BME280;17871;31.584;74.450;2023-04-29T09:21:35;97962.78;;;38.22;25.14
31239;BME280;17871;31.584;74.450;2023-04-29T09:24:04;97953.06;;;38.29;25.17
31239;BME280;17871;31.584;74.450;2023-04-29T09:26:42;97943.41;;;38.59;24.72
31239;BME280;17871;31.584;74.450;2023-04-29T09:29:13;97943.47;;;38.12;23.92
31239;BME280;17871;31.584;74.450;2023-04-29T09:31:44;97943.59;;;38.57;25.14
31239;BME280;17871;31.584;74.450;2023-04-29T09:34:14;97942.88;;;38.32;27.84
31239;BME280;17871;31.584;74.450;2023-04-29T09:36:48;97941.53;;;38.28;25.05
31239;BME280;17871;31.584;74.450;2023-04-29T09:39:21;97931.69;;;38.29;25.15
31239;BME280;17871;31.584;74.450;2023-04-29T09:44:25;97926.72;;;38.26;25.78
31239;BME280;17871;31.584;74.450;2023-04-29T09:47:06;97923.41;;;38.16;25.51
31239;BME280;17871;31.584;74.450;2023-04-29T09:49:36;97923.31;;;38.01;25.89
31239;BME280;17871;31.584;74.450;2023-04-29T09:52:15;97913.03;;;38.21;25.69
31239;BME280;17871;31.584;74.450;2023-04-29T09:54:46;97915.00;;;37.96;26.45
31239;BME280;17871;31.584;74.450;2023-04-29T09:57:14;97907.16;;;37.95;25.24
31239;BME280;17871;31.584;74.450;2023-04-29T09:59:44;97919.72;;;37.70;26.40
31239;BME280;17871;31.584;74.450;2023-04-29T10:02:17;97911.25;;;37.26;31.22
31239;BME280;17871;31.584;74.450;2023-04-29T10:04:53;97897.41;;;36.66;33.76
31239;BME280;17871;31.584;74.450;2023-04-29T10:07:31;97906.66;;;36.37;34.83
31239;BME280;17871;31.584;74.450;2023-04-29T10:10:00;97901.81;;;36.33;35.49
31239;BME280;17871;31.584;74.450;2023-04-29T10:12:36;97913.22;;;36.09;36.19
31239;BME280;17871;31.584;74.450;2023-04-29T10:18:20;97930.59;;;35.44;36.66
31239;BME280;17871;31.584;74.450;2023-04-29T10:20:52;97912.06;;;35.26;35.88
31239;BME280;17871;31.584;74.450;2023-04-29T10:23:25;97918.44;;;35.16;35.82
31239;BME280;17871;31.584;74.450;2023-04-29T10:25:56;97919.41;;;35.15;35.71
31239;BME280;17871;31.584;74.450;2023-04-29T10:28:32;97920.00;;;35.09;35.12
31239;BME280;17871;31.584;74.450;2023-04-29T10:31:01;97922.13;;;35.05;34.80
31239;BME280;17871;31.584;74.450;2023-04-29T10:33:34;97936.56;;;34.85;34.09
31239;BME280;17871;31.584;74.450;2023-04-29T10:36:05;97928.38;;;34.78;34.22
31239;BME280;17871;31.584;74.450;2023-04-29T10:38:46;97937.84;;;34.99;35.15
31239;BME280;17871;31.584;74.450;2023-04-29T10:41:26;97933.59;;;35.06;34.36
31239;BME280;17871;31.584;74.450;2023-04-29T10:43:58;97942.63;;;34.95;34.10
31239;BME280;17871;31.584;74.450;2023-04-29T10:46:30;97942.94;;;35.10;34.83
31239;BME280;17871;31.584;74.450;2023-04-29T10:49:03;97951.63;;;35.12;34.58
31239;BME280;17871;31.584;74.450;2023-04-29T10:51:41;97952.72;;;35.09;35.09
31239;BME280;17871;31.584;74.450;2023-04-29T10:54:15;97951.78;;;35.10;34.18
31239;BME280;17871;31.584;74.450;2023-04-29T10:56:52;97951.09;;;34.90;34.34
31239;BME280;17871;31.584;74.450;2023-04-29T11:02:11;97933.91;;;34.85;34.79
31239;BME280;17871;31.584;74.450;2023-04-29T11:05:11;97948.72;;;34.70;34.93
31239;BME280;17871;31.584;74.450;2023-04-29T11:07:40;97948.03;;;34.85;34.58
31239;BME280;17871;31.584;74.450;2023-04-29T11:10:12;97947.56;;;34.45;35.48
31239;BME280;17871;31.584;74.450;2023-04-29T11:12:42;97943.72;;;34.39;35.11
31239;BME280;17871;31.584;74.450;2023-04-29T11:15:17;97946.81;;;34.35;35.62
31239;BME280;17871;31.584;74.450;2023-04-29T11:17:46;97934.50;;;34.16;36.27
31239;BME280;17871;31.584;74.450;2023-04-29T11:20:15;97934.50;;;34.07;36.24
31239;BME280;17871;31.584;74.450;2023-04-29T11:22:50;97930.38;;;34.31;35.58
31239;BME280;17871;31.584;74.450;2023-04-29T11:25:19;97932.69;;;34.17;35.17
31239;BME280;17871;31.584;74.450;2023-04-29T11:27:50;97922.63;;;34.11;35.20
31239;BME280;17871;31.584;74.450;2023-04-29T11:30:23;97929.13;;;33.99;36.51
31239;BME280;17871;31.584;74.450;2023-04-29T11:32:53;97926.41;;;34.18;37.07
31239;BME280;17871;31.584;74.450;2023-04-29T11:35:23;97928.44;;;34.24;37.39
31239;BME280;17871;31.584;74.450;2023-04-29T11:37:52;97937.22;;;33.97;37.88
31239;BME280;17871;31.584;74.450;2023-04-29T11:40:21;97926.31;;;34.00;37.78
31239;BME280;17871;31.584;74.450;2023-04-29T11:42:50;97929.38;;;33.96;38.29
31239;BME280;17871;31.584;74.450;2023-04-29T11:45:19;97920.38;;;33.88;37.72
31239;BME280;17871;31.584;74.450;2023-04-29T11:47:49;97914.06;;;33.89;37.72
31239;BME280;17871;31.584;74.450;2023-04-29T11:50:22;97910.31;;;33.82;37.04
31239;BME280;17871;31.584;74.450;2023-04-29T11:52:51;97906.88;;;33.72;37.46
31239;BME280;17871;31.584;74.450;2023-04-29T11:55:20;97903.53;;;33.70;37.41
31239;BME280;17871;31.584;74.450;2023-04-29T11:57:49;97899.22;;;33.60;36.96
31239;BME280;17871;31.584;74.450;2023-04-29T12:00:20;97886.31;;;33.84;37.05
31239;BME280;17871;31.584;74.450;2023-04-29T12:02:49;97888.47;;;33.71;37.52
31239;BME280;17871;31.584;74.450;2023-04-29T12:05:18;97879.31;;;33.65;37.68
31239;BME280;17871;31.584;74.450;2023-04-29T12:07:56;97879.53;;;33.99;37.86
31239;BME280;17871;31.584;74.450;2023-04-29T12:10:29;97865.66;;;33.87;36.47
31239;BME280;17871;31.584;74.450;2023-04-29T12:16:37;97860.53;;;33.76;37.77
31239;BME280;17871;31.584;74.450;2023-04-29T12:19:07;97862.03;;;33.52;37.86
31239;BME280;17871;31.584;74.450;2023-04-29T12:22:21;97865.50;;;33.52;37.75
31239;BME280;17871;31.584;74.450;2023-04-29T12:25:06;97862.91;;;33.33;37.76
31239;BME280;17871;31.584;74.450;2023-04-29T12:27:58;97852.66;;;33.11;37.54
31239;BME280;17871;31.584;74.450;2023-04-29T12:30:29;97848.44;;;33.18;38.05
31239;BME280;17871;31.584;74.450;2023-04-29T12:32:58;97847.75;;;32.97;38.15
31239;BME280;17871;31.584;74.450;2023-04-29T12:35:27;97845.78;;;33.08;38.02
31239;BME280;17871;31.584;74.450;2023-04-29T12:37:57;97850.97;;;33.10;37.57
31239;BME280;17871;31.584;74.450;2023-04-29T12:40:27;97842.22;;;32.80;37.97
31239;BME280;17871;31.584;74.450;2023-04-29T12:42:57;97840.00;;;32.76;38.67
31239;BME280;17871;31.584;74.450;2023-04-29T12:45:30;97844.59;;;32.74;38.60
31239;BME280;17871;31.584;74.450;2023-04-29T12:48:00;97849.19;;;32.62;38.42
31239;BME280;17871;31.584;74.450;2023-04-29T12:50:54;97846.41;;;32.73;38.05
31239;BME280;17871;31.584;74.450;2023-04-29T12:53:26;97850.16;;;32.80;38.06
31239;BME280;17871;31.584;74.450;2023-04-29T12:55:57;97849.47;;;32.59;38.12
31239;BME280;17871;31.584;74.450;2023-04-29T12:58:30;97841.78;;;32.56;38.05
31239;BME280;17871;31.584;74.450;2023-04-29T13:01:04;97853.22;;;32.57;38.48
31239;BME280;17871;31.584;74.450;2023-04-29T13:06:31;97858.50;;;32.57;38.68
31239;BME280;17871;31.584;74.450;2023-04-29T13:09:00;97860.84;;;32.31;38.51
31239;BME280;17871;31.584;74.450;2023-04-29T13:11:29;97864.03;;;32.25;37.98
31239;BME280;17871;31.584;74.450;2023-04-29T13:14:01;97863.06;;;32.26;37.50
31239;BME280;17871;31.584;74.450;2023-04-29T13:16:34;97859.88;;;32.42;37.74
31239;BME280;17871;31.584;74.450;2023-04-29T13:19:07;97870.72;;;32.29;37.87
31239;BME280;17871;31.584;74.450;2023-04-29T13:22:21;97870.56;;;32.21;37.96
31239;BME280;17871;31.584;74.450;2023-04-29T13:24:52;97879.31;;;32.12;38.38
31239;BME280;17871;31.584;74.450;2023-04-29T13:27:22;97887.63;;;31.98;38.98
31239;BME280;17871;31.584;74.450;2023-04-29T13:29:53;97887.09;;;32.04;38.79
31239;BME280;17871;31.584;74.450;2023-04-29T13:32:27;97877.56;;;31.92;39.45
31239;BME280;17871;31.584;74.450;2023-04-29T13:35:13;97891.78;;;31.91;39.60
31239;BME280;17871;31.584;74.450;2023-04-29T13:37:43;97892.13;;;31.76;39.93
31239;BME280;17871;31.584;74.450;2023-04-29T13:40:17;97900.56;;;31.61;39.95
31239;BME280;17871;31.584;74.450;2023-04-29T13:42:48;97906.59;;;31.52;39.71
31239;BME280;17871;31.584;74.450;2023-04-29T13:45:32;97899.97;;;31.57;39.97
31239;BME280;17871;31.584;74.450;2023-04-29T13:48:25;97908.34;;;31.62;39.71
31239;BME280;17871;31.584;74.450;2023-04-29T13:50:58;97906.91;;;31.58;39.59
31239;BME280;17871;31.584;74.450;2023-04-29T13:53:31;97919.44;;;31.56;39.94
31239;BME280;17871;31.584;74.450;2023-04-29T13:56:21;97915.44;;;31.41;40.49
31239;BME280;17871;31.584;74.450;2023-04-29T13:58:56;97924.59;;;31.37;40.57
31239;BME280;17871;31.584;74.450;2023-04-29T14:01:28;97927.88;;;31.29;40.55
31239;BME280;17871;31.584;74.450;2023-04-29T14:04:00;97932.38;;;31.18;40.73
31239;BME280;17871;31.584;74.450;2023-04-29T14:06:29;97935.28;;;31.15;40.57
31239;BME280;17871;31.584;74.450;2023-04-29T14:09:02;97936.94;;;31.16;40.52
31239;BME280;17871;31.584;74.450;2023-04-29T14:15:28;97951.94;;;30.83;41.59
31239;BME280;17871;31.584;74.450;2023-04-29T14:18:00;97933.28;;;30.75;41.98
31239;BME280;17871;31.584;74.450;2023-04-29T14:20:30;97950.50;;;30.79;42.48
31239;BME280;17871;31.584;74.450;2023-04-29T14:22:59;97948.13;;;30.76;42.27
31239;BME280;17871;31.584;74.450;2023-04-29T14:25:28;97957.97;;;30.74;42.54
31239;BME280;17871;31.584;74.450;2023-04-29T14:28:00;97958.91;;;30.53;42.94
31239;BME280;17871;31.584;74.450;2023-04-29T14:30:29;97956.38;;;30.51;43.02
31239;BME280;17871;31.584;74.450;2023-04-29T14:36:04;97953.97;;;30.59;43.16
31239;BME280;17871;31.584;74.450;2023-04-29T14:38:33;97950.84;;;30.43;43.35
31239;BME280;17871;31.584;74.450;2023-04-29T14:41:02;97948.91;;;30.56;43.17